M I D A S
Marine Information and Data Acquisition System
Tripno 1667 of the Zeeleeuw from 2009-03-30 06:45:18 to 2009-03-30 15:00:56
Back to CruiseResearch ActivitiesStationsMapUnderway DataData graphs

EquipmentUnitsComment
TimeDGPSUTC
LatitudeDGPSDM.mWGS84
LongitudeDGPSDM.mWGS84
TemperatureSBE03/SBE38deg celciusITS90
ConductivitySBE21S/mITS90
SalinitySBE21 Practical Salinity Units
ChlorophylAChelsea fluorimeterg/lCalibrated in Aceton
Missing or incorrect values are displayed as -999
Sea surface data collected by the RV Zeeleeuw from 2009-03-30 05:57:48 to 2009-03-30 15:07:51
Time Latitude Longitude Temperature Conductivity Salinity ChlorophylA
2009-03-30 05:58:53 51°13.664 2°55.956 -999 0.043442 0.207533 -1.174688
2009-03-30 05:59:53 51°13.664 2°55.957 -999 0.043545 0.208041 -1.209513
2009-03-30 06:00:54 51°13.663 2°55.957 -999 0.042927 0.205075 -1.209513
2009-03-30 06:01:53 51°13.664 2°55.957 -999 0.043442 0.207569 -1.174688
2009-03-30 06:02:53 51°13.663 2°55.957 -999 0.043133 0.206091 -1.209513
2009-03-30 06:03:54 51°13.663 2°55.958 -999 0.043339 0.207093 -1.209513
2009-03-30 06:04:53 51°13.665 2°55.958 -999 0.04303 0.205616 -1.209513
2009-03-30 06:05:54 51°13.662 2°55.957 -999 0.043236 0.206617 -1.209513
2009-03-30 06:06:54 51°13.664 2°55.957 -999 0.043339 0.207123 -1.174688
2009-03-30 06:07:53 51°13.665 2°55.957 -999 0.04303 0.205642 -1.209513
2009-03-30 06:08:54 51°13.664 2°55.958 -999 0.042824 0.204659 -1.209513
2009-03-30 06:09:53 51°13.664 2°55.958 -999 0.042824 0.20467 -1.209513
2009-03-30 06:10:54 51°13.664 2°55.958 -999 0.043133 0.206168 -1.174688
2009-03-30 06:11:53 51°13.664 2°55.958 -999 0.043236 0.206677 -1.209513
2009-03-30 06:12:53 51°13.664 2°55.958 -999 0.043339 0.207185 -1.174688
2009-03-30 06:13:53 51°13.664 2°55.958 -999 0.042516 0.203229 -1.174688
2009-03-30 06:14:53 51°13.664 2°55.958 -999 0.04231 0.202248 -1.209513
2009-03-30 06:15:53 51°13.664 2°55.957 -999 0.042001 0.200777 -1.174688
2009-03-30 06:16:53 51°13.664 2°55.958 -999 0.041898 0.200299 -1.174688
2009-03-30 06:17:53 51°13.664 2°55.957 -999 0.041589 0.198831 -1.174688
2009-03-30 06:18:53 51°13.664 2°55.957 -999 0.041795 0.199843 -1.174688
2009-03-30 06:19:53 51°13.663 2°55.958 -999 0.041795 0.19986 -1.209513
2009-03-30 06:20:53 51°13.664 2°55.959 -999 0.041589 0.198888 -1.174688
2009-03-30 06:21:53 51°13.664 2°55.959 -999 0.041795 0.199898 -1.209513
2009-03-30 06:22:53 51°13.664 2°55.959 -999 0.041589 0.198923 -1.209513
2009-03-30 06:23:54 51°13.664 2°55.959 -999 0.041589 0.19894 -1.174688
2009-03-30 06:24:54 51°13.664 2°55.959 -999 0.041692 0.199453 -1.209513
2009-03-30 06:25:52 51°13.663 2°55.959 -999 0.041795 0.199966 -1.174688
2009-03-30 06:26:51 51°13.664 2°55.959 -999 0.041589 0.198991 -1.209513
2009-03-30 06:27:51 51°13.663 2°55.958 -999 0.041589 0.199011 -1.174688
2009-03-30 06:28:51 51°13.663 2°55.958 -999 0.041178 0.197049 -1.209513
2009-03-30 06:29:50 51°13.664 2°55.958 -999 0.041487 0.198566 -1.209513
2009-03-30 06:30:50 51°13.663 2°55.957 -999 0.041281 0.197597 -1.209513
2009-03-30 06:31:50 51°13.664 2°55.958 -999 0.041281 0.197622 -1.174688
2009-03-30 06:32:50 51°13.664 2°55.958 -999 0.041178 0.197151 -1.174688
2009-03-30 06:33:52 51°13.662 2°55.958 -999 0.041384 0.198173 -1.209513
2009-03-30 06:34:51 51°13.663 2°55.958 -999 0.041692 0.199682 -1.209513
2009-03-30 06:35:52 51°13.663 2°55.958 -999 0.041795 0.200205 -1.209513
2009-03-30 06:36:50 51°13.663 2°55.958 -999 0.041898 0.200734 -1.209513
2009-03-30 06:37:50 51°13.662 2°55.958 -999 0.042001 0.201263 -1.209513
2009-03-30 06:38:50 51°13.662 2°55.956 -999 0.041795 0.200295 -1.174688
2009-03-30 06:39:54 51°13.677 2°55.913 -999 0.040457 0.193862 -1.209513
2009-03-30 06:40:54 51°13.694 2°55.85 -999 0.041075 0.196864 -1.174688
2009-03-30 06:41:54 51°13.703 2°55.773 -999 3.991241 30.965635 3.735503
2009-03-30 06:42:53 51°13.706 2°55.741 -999 2.286585 19.424795 1.506764
2009-03-30 06:43:50 51°13.713 2°55.746 -999 2.267161 19.476037 1.506764
2009-03-30 06:44:51 51°13.717 2°55.737 -999 2.284729 19.687195 1.437116
2009-03-30 06:45:50 51°13.795 2°55.665 -999 2.389528 20.803031 3.631031
2009-03-30 06:46:50 51°13.924 2°55.562 -999 2.771715 25.228997 10.177953
2009-03-30 06:47:50 51°14.065 2°55.459 -999 2.92691 27.042096 12.093276
2009-03-30 06:48:50 51°14.203 2°55.342 -999 3.017878 28.17448 12.476341
2009-03-30 06:49:50 51°14.321 2°55.166 -999 3.061661 28.771637 12.615637
2009-03-30 06:50:50 51°14.426 2°54.949 -999 3.125841 29.522833 14.147895
2009-03-30 06:51:50 51°14.411 2°54.663 -999 3.235277 30.707969 14.496136
2009-03-30 06:52:50 51°14.319 2°54.369 -999 3.269034 31.089906 13.625534
2009-03-30 06:53:50 51°14.274 2°54.124 -999 3.343701 31.87375 11.849508
2009-03-30 06:54:51 51°14.354 2°54.044 -999 3.373737 32.166159 11.048554
2009-03-30 06:55:51 51°14.503 2°54.058 -999 3.385856 32.348613 10.66549
2009-03-30 06:56:51 51°14.689 2°54.084 -999 3.393832 32.429768 10.143129
2009-03-30 06:57:51 51°14.878 2°54.122 -999 3.39725 32.500991 10.143129
2009-03-30 06:58:51 51°15.068 2°54.151 -999 3.393004 32.496903 9.794888
2009-03-30 06:59:50 51°15.258 2°54.188 -999 3.414031 32.715318 8.784991
2009-03-30 07:00:50 51°15.45 2°54.231 -999 3.421904 32.81893 8.541223
2009-03-30 07:01:51 51°15.647 2°54.274 -999 3.421283 32.833063 8.158158
2009-03-30 07:02:51 51°15.839 2°54.316 -999 3.430605 32.917656 7.635797
2009-03-30 07:03:51 51°16.012 2°54.348 -999 3.420661 32.832498 7.287557
2009-03-30 07:04:51 51°16.143 2°54.353 -999 3.401809 32.664429 6.97414
2009-03-30 07:05:51 51°16.205 2°54.297 -999 3.394559 32.616432 6.660724
2009-03-30 07:06:51 51°16.24 2°54.246 -999 3.395802 32.625378 6.730372
2009-03-30 07:07:51 51°16.254 2°54.201 -999 3.39518 32.611003 6.834844
2009-03-30 07:08:51 51°16.262 2°54.159 -999 3.394352 32.600449 7.008964
2009-03-30 07:09:51 51°16.267 2°54.121 -999 3.394352 32.593567 7.008964
2009-03-30 07:10:51 51°16.271 2°54.085 -999 3.394041 32.591115 6.97414
2009-03-30 07:11:50 51°16.273 2°54.053 -999 3.393937 32.590872 6.834844
2009-03-30 07:12:50 51°16.278 2°54.018 -999 3.393316 32.584249 6.660724
2009-03-30 07:13:50 51°16.307 2°53.887 -999 3.394352 32.591846 6.416955
2009-03-30 07:14:50 51°16.399 2°53.669 -999 3.394869 32.586186 7.113436
2009-03-30 07:15:50 51°16.539 2°53.451 -999 3.400877 32.638134 8.715343
2009-03-30 07:16:50 51°16.688 2°53.222 -999 3.414446 32.742988 9.168055
2009-03-30 07:17:50 51°16.832 2°52.987 -999 3.425426 32.833952 8.959111
2009-03-30 07:18:50 51°16.973 2°52.755 -999 3.428326 32.874332 8.43675
2009-03-30 07:19:50 51°17.117 2°52.523 -999 3.435267 32.949096 8.889463
2009-03-30 07:20:50 51°17.275 2°52.315 -999 3.438789 32.989211 8.959111
2009-03-30 07:21:50 51°17.44 2°52.123 -999 3.444383 33.047063 8.297454
2009-03-30 07:22:50 51°17.608 2°51.938 -999 3.456192 33.173787 7.670621
2009-03-30 07:23:50 51°17.775 2°51.752 -999 3.472975 33.360659 6.695548
2009-03-30 07:24:50 51°17.937 2°51.556 -999 3.495145 33.606199 5.51153
2009-03-30 07:25:50 51°18.106 2°51.374 -999 3.515452 33.846442 3.700679
2009-03-30 07:26:50 51°18.259 2°51.223 -999 3.519389 33.886791 3.944447
2009-03-30 07:27:50 51°18.372 2°51.102 -999 3.518457 33.890215 3.631031
2009-03-30 07:28:50 51°18.447 2°51.014 -999 3.517835 33.896077 3.491735
2009-03-30 07:29:50 51°18.495 2°50.957 -999 3.517628 33.901015 3.073846
2009-03-30 07:30:50 51°18.516 2°50.919 -999 3.518768 33.916805 2.795254
2009-03-30 07:31:50 51°18.529 2°50.884 -999 3.518457 33.916161 2.830078
2009-03-30 07:32:50 51°18.538 2°50.854 -999 3.519286 33.925938 2.93455
2009-03-30 07:33:50 51°18.544 2°50.827 -999 3.520426 33.939943 2.864902
2009-03-30 07:34:50 51°18.553 2°50.796 -999 3.522291 33.961723 2.655957
2009-03-30 07:35:50 51°18.594 2°50.757 -999 3.52716 34.02021 2.238069
2009-03-30 07:36:50 51°18.644 2°50.825 -999 3.534517 34.099102 1.785356
2009-03-30 07:37:50 51°18.711 2°51.002 -999 3.536589 34.132148 2.098773
2009-03-30 07:38:50 51°18.78 2°51.25 -999 3.507268 33.790053 3.596207
2009-03-30 07:39:50 51°18.837 2°51.52 -999 3.483542 33.513162 4.536456
2009-03-30 07:40:50 51°18.894 2°51.79 -999 3.458576 33.26312 5.650826
2009-03-30 07:41:50 51°18.949 2°52.061 -999 3.442001 33.10273 6.765196
2009-03-30 07:42:50 51°19.003 2°52.332 -999 3.429467 32.983713 7.461677
2009-03-30 07:43:50 51°19.055 2°52.602 -999 3.416519 32.855903 7.740269
2009-03-30 07:44:50 51°19.11 2°52.871 -999 3.409993 32.785384 8.053686
2009-03-30 07:45:50 51°19.168 2°53.138 -999 3.39487 32.643885 8.43675
2009-03-30 07:46:50 51°19.224 2°53.406 -999 3.37374 32.442528 8.819815
2009-03-30 07:47:50 51°19.263 2°53.682 -999 3.377469 32.479734 8.959111
2009-03-30 07:48:50 51°19.293 2°53.96 -999 3.374155 32.450381 9.481472
2009-03-30 07:49:50 51°19.326 2°54.236 -999 3.35748 32.301576 10.073481
2009-03-30 07:50:50 51°19.355 2°54.516 -999 3.339252 32.143731 10.386897
2009-03-30 07:51:50 51°19.394 2°54.789 -999 3.331588 32.081495 10.247601
2009-03-30 07:52:50 51°19.453 2°55.051 -999 3.323303 32.004081 10.595842
2009-03-30 07:53:50 51°19.521 2°55.31 -999 3.312118 31.912633 10.66549
2009-03-30 07:54:50 51°19.572 2°55.576 -999 3.30984 31.869677 12.511165
2009-03-30 07:55:50 51°19.629 2°55.844 -999 3.301555 31.776202 13.973775
2009-03-30 07:56:50 51°19.688 2°56.116 -999 3.292959 31.690411 15.471209
2009-03-30 07:57:50 51°19.745 2°56.388 -999 3.272559 31.486296 16.724875
2009-03-30 07:58:50 51°19.801 2°56.659 -999 3.255991 31.330537 17.28206
2009-03-30 07:59:50 51°19.861 2°56.924 -999 3.254956 31.336152 16.620403
2009-03-30 08:00:50 51°19.916 2°57.189 -999 3.228759 31.099103 18.988439
2009-03-30 08:01:50 51°19.969 2°57.453 -999 3.20101 30.833688 21.774363
2009-03-30 08:02:50 51°20.018 2°57.72 -999 3.194591 30.763608 22.644964
2009-03-30 08:03:50 51°20.066 2°57.986 -999 3.177508 30.606051 24.560287
2009-03-30 08:04:50 51°20.115 2°58.25 -999 3.155456 30.409225 27.798924
2009-03-30 08:05:50 51°20.171 2°58.508 -999 3.143551 30.301744 29.261534
2009-03-30 08:06:50 51°20.219 2°58.768 -999 3.130921 30.188892 31.62957
2009-03-30 08:07:50 51°20.268 2°59.026 -999 3.11736 30.053959 34.554791
2009-03-30 08:08:50 51°20.322 2°59.279 -999 3.106905 29.948128 37.340715
2009-03-30 08:09:51 51°20.375 2°59.536 -999 3.102143 29.900582 36.818354
2009-03-30 08:10:50 51°20.422 2°59.789 -999 3.10028 29.883925 35.773633
2009-03-30 08:11:50 51°20.465 3°0.049 -999 3.098934 29.872783 34.833383
2009-03-30 08:12:50 51°20.511 3°0.307 -999 3.10028 29.887925 34.450318
2009-03-30 08:13:50 51°20.56 3°0.56 -999 3.101004 29.901251 33.684189
2009-03-30 08:14:50 51°20.607 3°0.815 -999 3.101522 29.904367 34.03243
2009-03-30 08:15:50 51°20.655 3°1.069 -999 3.097692 29.867539 32.430523
2009-03-30 08:16:51 51°20.706 3°1.326 -999 3.096243 29.85289 31.594746
2009-03-30 08:17:50 51°20.756 3°1.573 -999 3.095001 29.841248 30.550024
2009-03-30 08:18:51 51°20.808 3°1.825 -999 3.095518 29.848363 31.350978
2009-03-30 08:19:50 51°20.858 3°2.07 -999 3.095208 29.847451 31.490274
2009-03-30 08:20:51 51°20.907 3°2.323 -999 3.094587 29.848823 30.654497
2009-03-30 08:21:50 51°20.954 3°2.569 -999 3.095933 29.874377 29.853543
2009-03-30 08:22:50 51°21 3°2.819 -999 3.095933 29.879982 28.042693
2009-03-30 08:23:50 51°21.041 3°3.072 -999 3.092413 29.841632 28.530229
2009-03-30 08:24:50 51°21.084 3°3.323 -999 3.087962 29.793354 31.142033
2009-03-30 08:25:51 51°21.133 3°3.577 -999 3.08113 29.717315 31.838514
2009-03-30 08:26:50 51°21.179 3°3.821 -999 3.082165 29.725961 33.475245
2009-03-30 08:27:51 51°21.219 3°4.075 -999 3.087858 29.781874 34.102078
2009-03-30 08:28:50 51°21.275 3°4.315 -999 3.090964 29.807798 35.077151
2009-03-30 08:29:51 51°21.331 3°4.559 -999 3.093137 29.827777 36.748706
2009-03-30 08:30:50 51°21.386 3°4.798 -999 3.101108 29.912765 36.121873
2009-03-30 08:31:51 51°21.447 3°5.042 -999 3.108044 29.989152 35.460216
2009-03-30 08:32:50 51°21.507 3°5.277 -999 3.113427 30.045785 33.85831
2009-03-30 08:33:50 51°21.561 3°5.521 -999 3.118085 30.093889 32.534996
2009-03-30 08:34:51 51°21.62 3°5.766 -999 3.12057 30.125249 31.350978
2009-03-30 08:35:50 51°21.679 3°6.001 -999 3.122329 30.139193 30.619673
2009-03-30 08:36:51 51°21.732 3°6.25 -999 3.120156 30.118407 30.863441
2009-03-30 08:37:50 51°21.768 3°6.498 -999 3.117464 30.096127 31.037561
2009-03-30 08:38:51 51°21.786 3°6.762 -999 3.116015 30.082267 29.818719
2009-03-30 08:39:51 51°21.77 3°7.027 -999 3.116325 30.088807 30.132136
2009-03-30 08:40:51 51°21.752 3°7.293 -999 3.114876 30.078976 30.724145
2009-03-30 08:41:51 51°21.738 3°7.559 -999 3.116222 30.082059 30.967913
2009-03-30 08:42:50 51°21.77 3°7.804 -999 3.121191 30.139954 30.5152
2009-03-30 08:43:51 51°21.83 3°8.05 -999 3.125435 30.181241 30.550024
2009-03-30 08:44:50 51°21.898 3°8.282 -999 3.128748 30.215814 30.16696
2009-03-30 08:45:51 51°21.975 3°8.515 -999 3.12968 30.230626 29.679423
2009-03-30 08:46:50 51°22.033 3°8.752 -999 3.127713 30.211232 28.739174
2009-03-30 08:47:51 51°22.082 3°9.004 -999 3.126678 30.20422 28.460581
2009-03-30 08:48:51 51°22.121 3°9.259 -999 3.125953 30.190814 28.216813
2009-03-30 08:49:51 51°22.164 3°9.515 -999 3.123986 30.173039 28.147165
2009-03-30 08:50:51 51°22.211 3°9.769 -999 3.121398 30.142165 28.70435
2009-03-30 08:51:50 51°22.249 3°10.023 -999 3.118085 30.111632 29.157062
2009-03-30 08:52:51 51°22.289 3°10.286 -999 3.11115 30.037574 29.400831
2009-03-30 08:53:53 51°22.331 3°10.556 -999 3.106181 29.985337 29.888367
2009-03-30 08:54:53 51°22.366 3°10.821 -999 3.102351 29.947669 30.828617
2009-03-30 08:55:50 51°22.391 3°11.075 -999 3.100798 29.926285 30.201784
2009-03-30 08:56:50 51°22.411 3°11.346 -999 3.097796 29.891051 31.211682
2009-03-30 08:57:50 51°22.434 3°11.617 -999 3.095518 29.865157 30.863441
2009-03-30 08:58:50 51°22.456 3°11.887 -999 3.099348 29.889196 27.276563
2009-03-30 08:59:50 51°22.477 3°12.156 -999 3.103282 29.922326 27.729276
2009-03-30 09:00:50 51°22.499 3°12.427 -999 3.10028 29.887925 29.99284
2009-03-30 09:01:50 51°22.525 3°12.697 -999 3.095725 29.836989 30.132136
2009-03-30 09:02:50 51°22.55 3°12.951 -999 3.092309 29.795809 30.550024
2009-03-30 09:03:50 51°22.566 3°13.11 -999 3.090342 29.775657 30.933089
2009-03-30 09:04:50 51°22.589 3°13.177 -999 3.09086 29.77161 28.87847
2009-03-30 09:05:50 51°22.623 3°13.173 -999 3.091688 29.771668 27.973045
2009-03-30 09:06:50 51°22.647 3°13.157 -999 3.093551 29.789114 28.007869
2009-03-30 09:07:50 51°22.664 3°13.142 -999 3.095311 29.808644 27.7641
2009-03-30 09:08:50 51°22.68 3°13.125 -999 3.09676 29.824074 27.973045
2009-03-30 09:09:49 51°22.696 3°13.103 -999 3.096967 29.83266 28.565053
2009-03-30 09:10:50 51°22.782 3°13.064 -999 3.097795 29.848664 29.05259
2009-03-30 09:11:50 51°22.938 3°12.994 -999 3.101108 29.875961 29.296359
2009-03-30 09:12:50 51°23.121 3°12.93 -999 3.116842 30.040404 30.027664
2009-03-30 09:13:51 51°23.312 3°12.835 -999 3.131957 30.220947 31.28133
2009-03-30 09:14:50 51°23.493 3°12.725 -999 3.141481 30.327487 31.142033
2009-03-30 09:15:51 51°23.68 3°12.611 -999 3.148314 30.40942 31.594746
2009-03-30 09:16:50 51°23.862 3°12.504 -999 3.153076 30.467656 31.316154
2009-03-30 09:17:50 51°24.045 3°12.384 -999 3.151213 30.456709 30.480376
2009-03-30 09:18:50 51°24.224 3°12.232 -999 3.145312 30.397692 28.948118
2009-03-30 09:19:50 51°24.399 3°12.054 -999 3.144691 30.393495 28.599877
2009-03-30 09:20:50 51°24.568 3°11.86 -999 3.142413 30.378915 30.480376
2009-03-30 09:21:50 51°24.739 3°11.69 -999 3.134752 30.302691 30.410728
2009-03-30 09:22:50 51°24.91 3°11.527 -999 3.136305 30.332309 29.679423
2009-03-30 09:23:50 51°25.08 3°11.372 -999 3.143966 30.416726 28.669526
2009-03-30 09:24:50 51°25.248 3°11.225 -999 3.14438 30.420342 27.93822
2009-03-30 09:25:50 51°25.409 3°11.066 -999 3.140653 30.373124 27.41586
2009-03-30 09:26:50 51°25.566 3°10.915 -999 3.133717 30.287561 26.057722
2009-03-30 09:27:50 51°25.711 3°10.757 -999 3.138272 30.317566 25.082648
2009-03-30 09:28:50 51°25.836 3°10.557 -999 3.156285 30.44326 25.848777
2009-03-30 09:29:50 51°25.959 3°10.343 -999 3.17005 30.243644 24.420991
2009-03-30 09:30:50 51°26.053 3°10.091 -999 3.193344 30.375848 24.107575
2009-03-30 09:31:50 51°26.116 3°9.8 -999 3.210119 30.687255 24.246871
2009-03-30 09:32:50 51°26.177 3°9.508 -999 3.215194 30.908395 24.908528
2009-03-30 09:33:50 51°26.242 3°9.216 -999 3.21944 31.044361 26.12737
2009-03-30 09:34:50 51°26.31 3°8.929 -999 3.218509 31.08913 26.580082
2009-03-30 09:35:50 51°26.37 3°8.683 -999 3.213022 31.052843 26.963147
2009-03-30 09:36:50 51°26.41 3°8.495 -999 3.209502 31.035092 26.64973
2009-03-30 09:37:50 51°26.422 3°8.378 -999 3.207742 31.023719 26.162194
2009-03-30 09:38:50 51°26.421 3°8.324 -999 3.20712 31.015407 24.978176
2009-03-30 09:39:50 51°26.418 3°8.293 -999 3.206396 31.006817 24.943352
2009-03-30 09:40:51 51°26.412 3°8.268 -999 3.206499 31.008756 24.699583
2009-03-30 09:41:50 51°26.402 3°8.249 -999 3.206396 31.005988 24.212047
2009-03-30 09:42:50 51°26.394 3°8.209 -999 3.206499 31.002948 24.142399
2009-03-30 09:43:50 51°26.417 3°8.046 -999 3.206499 30.998801 23.759334
2009-03-30 09:44:51 51°26.493 3°7.8 -999 3.205256 30.946595 24.455815
2009-03-30 09:45:50 51°26.578 3°7.533 -999 3.203806 30.909632 25.256768
2009-03-30 09:46:51 51°26.67 3°7.254 -999 3.202668 30.915625 24.83888
2009-03-30 09:47:51 51°26.777 3°6.998 -999 3.201011 30.90205 23.654862
2009-03-30 09:48:50 51°26.893 3°6.759 -999 3.193246 30.825665 22.714612
2009-03-30 09:49:51 51°27.012 3°6.507 -999 3.199562 30.899767 22.61014
2009-03-30 09:50:50 51°27.123 3°6.258 -999 3.199458 30.89123 22.296724
2009-03-30 09:51:50 51°27.235 3°6.001 -999 3.202564 30.92939 23.097677
2009-03-30 09:52:51 51°27.348 3°5.739 -999 3.208259 30.99691 24.943352
2009-03-30 09:53:51 51°27.458 3°5.478 -999 3.211262 31.027372 25.639833
2009-03-30 09:54:50 51°27.568 3°5.224 -999 3.214057 31.05811 26.580082
2009-03-30 09:55:50 51°27.68 3°4.965 -999 3.21882 31.111571 25.744305
2009-03-30 09:56:50 51°27.792 3°4.707 -999 3.22845 31.217158 23.89863
2009-03-30 09:57:50 51°27.902 3°4.445 -999 3.239011 31.331119 21.844011
2009-03-30 09:58:50 51°28.014 3°4.184 -999 3.24802 31.422613 21.14753
2009-03-30 09:59:50 51°28.125 3°3.921 -999 3.253922 31.490925 20.520697
2009-03-30 10:00:51 51°28.232 3°3.663 -999 3.258168 31.549946 20.276929
2009-03-30 10:01:51 51°28.284 3°3.501 -999 3.261585 31.611983 21.112706
2009-03-30 10:02:51 51°28.287 3°3.414 -999 3.263864 31.65425 21.112706
2009-03-30 10:03:51 51°28.276 3°3.379 -999 3.263967 31.670639 22.157428
2009-03-30 10:04:50 51°28.265 3°3.356 -999 3.264175 31.677112 23.306621
2009-03-30 10:05:51 51°28.252 3°3.337 -999 3.264071 31.681945 23.55039
2009-03-30 10:06:50 51°28.239 3°3.319 -999 3.264278 31.684172 23.480742
2009-03-30 10:07:50 51°28.225 3°3.303 -999 3.264278 31.686722 23.55039
2009-03-30 10:08:50 51°28.218 3°3.281 -999 3.264278 31.695223 23.759334
2009-03-30 10:09:50 51°28.219 3°3.222 -999 3.265003 31.70047 23.062853
2009-03-30 10:10:50 51°28.208 3°3.096 -999 3.265935 31.705393 23.72451
2009-03-30 10:11:50 51°28.193 3°2.82 -999 3.265625 31.708856 24.142399
2009-03-30 10:12:51 51°28.137 3°2.493 -999 3.266039 31.700554 25.500537
2009-03-30 10:13:51 51°28.074 3°2.155 -999 3.266763 31.687955 27.102443
2009-03-30 10:14:51 51°28.013 3°1.813 -999 3.268834 31.717016 27.520332
2009-03-30 10:15:49 51°27.96 3°1.479 -999 3.271527 31.751922 29.017766
2009-03-30 10:16:50 51°27.901 3°1.128 -999 3.272148 31.776496 28.460581
2009-03-30 10:17:51 51°27.841 3°0.776 -999 3.273598 31.782718 27.58998
2009-03-30 10:18:50 51°27.778 3°0.437 -999 3.273805 31.782389 27.172091
2009-03-30 10:19:51 51°27.709 3°0.087 -999 3.27598 31.804079 27.346212
2009-03-30 10:20:50 51°27.645 2°59.746 -999 3.278051 31.840022 30.201784
2009-03-30 10:21:51 51°27.581 2°59.393 -999 3.279604 31.874702 32.952884
2009-03-30 10:22:50 51°27.521 2°59.051 -999 3.282194 31.924872 34.833383
2009-03-30 10:23:51 51°27.46 2°58.698 -999 3.281987 31.931219 34.589615
2009-03-30 10:24:51 51°27.401 2°58.349 -999 3.283644 31.954238 34.450318
2009-03-30 10:25:50 51°27.342 2°58.007 -999 3.28675 31.974854 32.674292
2009-03-30 10:26:51 51°27.278 2°57.654 -999 3.291307 32.019688 29.679423
2009-03-30 10:27:50 51°27.217 2°57.313 -999 3.295759 32.045328 28.321285
2009-03-30 10:28:51 51°27.15 2°56.961 -999 3.299177 32.072693 27.903396
2009-03-30 10:29:50 51°27.09 2°56.616 -999 3.303008 32.107956 27.729276
2009-03-30 10:30:51 51°27.03 2°56.261 -999 3.306219 32.139105 27.555156
2009-03-30 10:31:50 51°26.969 2°55.92 -999 3.313364 32.198848 25.953249
2009-03-30 10:32:51 51°26.908 2°55.569 -999 3.322581 32.275677 23.620038
2009-03-30 10:33:51 51°26.843 2°55.222 -999 3.330245 32.34091 21.704715
2009-03-30 10:34:50 51°26.782 2°54.878 -999 3.335216 32.394452 22.644964
2009-03-30 10:35:50 51°26.721 2°54.528 -999 3.335527 32.43428 24.908528
2009-03-30 10:36:50 51°26.662 2°54.176 -999 3.332524 32.463696 27.381036
2009-03-30 10:37:50 51°26.602 2°53.829 -999 3.329418 32.47376 29.22671
2009-03-30 10:38:50 51°26.541 2°53.482 -999 3.326519 32.48523 30.306256
2009-03-30 10:39:50 51°26.478 2°53.139 -999 3.326312 32.48999 30.132136
2009-03-30 10:40:50 51°26.421 2°52.792 -999 3.326829 32.500856 30.654497
2009-03-30 10:41:50 51°26.36 2°52.445 -999 3.326933 32.513372 30.863441
2009-03-30 10:42:50 51°26.303 2°52.097 -999 3.327554 32.514846 30.097312
2009-03-30 10:43:50 51°26.243 2°51.748 -999 3.329315 32.533925 29.435655
2009-03-30 10:44:50 51°26.186 2°51.399 -999 3.332422 32.549168 29.087414
2009-03-30 10:45:50 51°26.13 2°51.049 -999 3.337186 32.586731 28.565053
2009-03-30 10:46:51 51°26.068 2°50.693 -999 3.342157 32.62476 28.251637
2009-03-30 10:47:51 51°26.013 2°50.34 -999 3.344953 32.637466 27.973045
2009-03-30 10:48:51 51°25.956 2°49.988 -999 3.345574 32.62225 27.381036
2009-03-30 10:49:51 51°25.899 2°49.638 -999 3.347749 32.623848 26.231842
2009-03-30 10:50:50 51°25.843 2°49.294 -999 3.353031 32.652005 24.978176
2009-03-30 10:51:50 51°25.815 2°48.977 -999 3.35738 32.671817 24.316519
2009-03-30 10:52:50 51°25.879 2°48.82 -999 3.362145 32.706593 23.271797
2009-03-30 10:53:50 51°25.925 2°48.7 -999 3.36867 32.776147 22.018131
2009-03-30 10:54:50 51°25.965 2°48.605 -999 3.374573 32.815264 19.092911
2009-03-30 10:55:50 51°25.975 2°48.554 -999 3.379959 32.850514 17.699949
2009-03-30 10:56:50 51°25.974 2°48.518 -999 3.382134 32.866059 18.605374
2009-03-30 10:57:50 51°25.967 2°48.49 -999 3.382548 32.875804 18.953615
2009-03-30 10:58:51 51°25.958 2°48.471 -999 3.385242 32.911896 19.475975
2009-03-30 10:59:50 51°25.945 2°48.457 -999 3.39011 32.970603 19.371503
2009-03-30 11:00:51 51°25.93 2°48.446 -999 3.394564 33.027523 19.406327
2009-03-30 11:01:50 51°25.891 2°48.435 -999 3.3985 33.076232 18.74467
2009-03-30 11:02:51 51°25.855 2°48.415 -999 3.403369 33.141257 17.804421
2009-03-30 11:03:50 51°25.834 2°48.457 -999 3.403679 33.127751 18.675022
2009-03-30 11:04:51 51°25.735 2°48.464 -999 3.39995 33.052947 19.441151
2009-03-30 11:05:50 51°25.553 2°48.439 -999 3.394356 32.984659 18.779494
2009-03-30 11:06:50 51°25.341 2°48.405 -999 3.390006 32.944792 21.739539
2009-03-30 11:07:50 51°25.13 2°48.37 -999 3.372191 32.770255 24.978176
2009-03-30 11:08:50 51°24.918 2°48.334 -999 3.361937 32.67721 26.64973
2009-03-30 11:09:50 51°24.705 2°48.302 -999 3.360798 32.696444 27.241739
2009-03-30 11:10:50 51°24.492 2°48.271 -999 3.360798 32.717492 27.067619
2009-03-30 11:11:50 51°24.279 2°48.244 -999 3.361109 32.720848 26.405962
2009-03-30 11:12:50 51°24.065 2°48.212 -999 3.360281 32.717165 26.510434
2009-03-30 11:13:50 51°23.851 2°48.184 -999 3.361213 32.709683 25.709481
2009-03-30 11:14:50 51°23.636 2°48.159 -999 3.363491 32.721125 25.117472
2009-03-30 11:15:50 51°23.42 2°48.135 -999 3.364734 32.716127 23.620038
2009-03-30 11:16:50 51°23.204 2°48.108 -999 3.368669 32.727033 21.983307
2009-03-30 11:17:50 51°22.987 2°48.08 -999 3.371983 32.742612 20.590345
2009-03-30 11:18:50 51°22.771 2°48.058 -999 3.374262 32.748775 19.580448
2009-03-30 11:19:50 51°22.553 2°48.032 -999 3.377265 32.764489 18.814318
2009-03-30 11:20:50 51°22.337 2°48.016 -999 3.380372 32.781307 18.083013
2009-03-30 11:21:51 51°22.119 2°48.003 -999 3.384308 32.797402 17.177588
2009-03-30 11:22:50 51°21.911 2°47.987 -999 3.38783 32.810776 15.540857
2009-03-30 11:23:50 51°21.699 2°47.971 -999 3.391765 32.825093 14.182719
2009-03-30 11:24:50 51°21.49 2°47.939 -999 3.395494 32.836299 13.172822
2009-03-30 11:25:50 51°21.285 2°47.861 -999 3.39539 32.777654 11.466443
2009-03-30 11:26:51 51°21.087 2°47.722 -999 3.39021 32.675341 10.526194
2009-03-30 11:27:50 51°20.915 2°47.526 -999 3.383892 32.613825 9.934185
2009-03-30 11:28:50 51°20.77 2°47.271 -999 3.378609 32.558202 10.143129
2009-03-30 11:29:50 51°20.658 2°46.975 -999 3.373845 32.496067 10.317249
2009-03-30 11:30:50 51°20.559 2°46.667 -999 3.376434 32.549615 10.073481
2009-03-30 11:31:50 51°20.492 2°46.341 -999 3.379231 32.588171 9.934185
2009-03-30 11:32:51 51°20.452 2°45.999 -999 3.380681 32.601958 9.794888
2009-03-30 11:33:50 51°20.414 2°45.666 -999 3.38296 32.61596 9.585944
2009-03-30 11:34:51 51°20.369 2°45.322 -999 3.385031 32.625145 9.133231
2009-03-30 11:35:50 51°20.323 2°44.989 -999 3.386585 32.620146 8.645695
2009-03-30 11:36:50 51°20.272 2°44.652 -999 3.388242 32.635266 8.680519
2009-03-30 11:37:50 51°20.229 2°44.312 -999 3.390935 32.650216 8.784991
2009-03-30 11:38:50 51°20.182 2°43.972 -999 3.392385 32.662252 8.819815
2009-03-30 11:39:51 51°20.133 2°43.628 -999 3.393213 32.639141 8.471574
2009-03-30 11:40:50 51°20.083 2°43.295 -999 3.396321 32.685277 8.680519
2009-03-30 11:41:50 51°20.04 2°42.953 -999 3.397045 32.680053 8.506398
2009-03-30 11:42:50 51°20.013 2°42.609 -999 3.39777 32.647224 8.401926
2009-03-30 11:43:50 51°19.985 2°42.265 -999 3.400359 32.617998 7.740269
2009-03-30 11:44:50 51°19.958 2°41.922 -999 3.403673 32.633506 7.670621
2009-03-30 11:45:50 51°19.931 2°41.581 -999 3.409163 32.687625 7.775093
2009-03-30 11:46:50 51°19.904 2°41.239 -999 3.408438 32.68163 7.635797
2009-03-30 11:47:50 51°19.88 2°40.897 -999 3.406988 32.637834 7.531325
2009-03-30 11:48:51 51°19.862 2°40.556 -999 3.424597 32.823407 7.496501
2009-03-30 11:49:50 51°19.848 2°40.229 -999 3.450495 33.171573 7.531325
2009-03-30 11:50:51 51°19.835 2°39.89 -999 3.459094 33.302921 7.183084
2009-03-30 11:51:51 51°19.819 2°39.553 -999 3.464481 33.344678 6.242835
2009-03-30 11:52:51 51°19.8 2°39.217 -999 3.467589 33.363814 5.929418
2009-03-30 11:53:50 51°19.782 2°38.888 -999 3.471629 33.382334 5.302586
2009-03-30 11:54:51 51°19.768 2°38.55 -999 3.475462 33.423281 5.198113
2009-03-30 11:55:51 51°19.75 2°38.217 -999 3.477741 33.48118 5.407058
2009-03-30 11:56:50 51°19.728 2°37.891 -999 3.47971 33.504887 4.884697
2009-03-30 11:57:51 51°19.713 2°37.553 -999 3.483025 33.529731 4.745401
2009-03-30 11:58:50 51°19.701 2°37.225 -999 3.48489 33.560305 5.023993
2009-03-30 11:59:50 51°19.687 2°36.891 -999 3.485926 33.583803 5.023993
2009-03-30 12:00:50 51°19.678 2°36.559 -999 3.487687 33.606206 4.954345
2009-03-30 12:01:50 51°19.671 2°36.229 -999 3.49007 33.642383 5.058817
2009-03-30 12:02:51 51°19.666 2°35.892 -999 3.492349 33.682818 5.023993
2009-03-30 12:03:50 51°19.662 2°35.567 -999 3.494629 33.713485 4.815049
2009-03-30 12:04:50 51°19.66 2°35.237 -999 3.496908 33.740597 4.745401
2009-03-30 12:05:50 51°19.655 2°34.909 -999 3.500016 33.771246 4.710577
2009-03-30 12:06:51 51°19.653 2°34.575 -999 3.504678 33.806045 4.57128
2009-03-30 12:07:50 51°19.653 2°34.253 -999 3.507683 33.836468 4.919521
2009-03-30 12:08:51 51°19.658 2°33.915 -999 3.510791 33.866213 4.815049
2009-03-30 12:09:50 51°19.659 2°33.587 -999 3.512655 33.862047 4.014096
2009-03-30 12:10:50 51°19.665 2°33.252 -999 3.515142 33.869016 3.631031
2009-03-30 12:11:51 51°19.683 2°32.915 -999 3.515038 33.877741 3.526559
2009-03-30 12:12:50 51°19.698 2°32.589 -999 3.516903 33.875364 3.178318
2009-03-30 12:13:51 51°19.71 2°32.25 -999 3.521151 33.918164 2.795254
2009-03-30 12:14:50 51°19.724 2°31.922 -999 3.519079 33.910289 2.899726
2009-03-30 12:15:51 51°19.747 2°31.583 -999 3.517007 33.899725 3.143494
2009-03-30 12:16:50 51°19.77 2°31.267 -999 3.516592 33.871142 3.073846
2009-03-30 12:17:51 51°19.791 2°30.95 -999 3.517317 33.857473 3.039022
2009-03-30 12:18:51 51°19.812 2°30.645 -999 3.520943 33.892701 2.899726
2009-03-30 12:19:51 51°19.834 2°30.351 -999 3.527056 33.949171 2.725606
2009-03-30 12:20:51 51°19.852 2°30.136 -999 3.535863 34.074853 2.655957
2009-03-30 12:21:51 51°19.908 2°30.093 -999 3.53949 34.142533 2.621133
2009-03-30 12:22:51 51°19.955 2°30.069 -999 3.541044 34.170933 2.551485
2009-03-30 12:23:51 51°19.982 2°30.052 -999 3.542391 34.182677 2.586309
2009-03-30 12:24:50 51°19.999 2°30.048 -999 3.543013 34.187542 2.586309
2009-03-30 12:25:50 51°20.011 2°30.052 -999 3.543427 34.18928 2.725606
2009-03-30 12:26:51 51°20.019 2°30.063 -999 3.544256 34.198173 2.830078
2009-03-30 12:27:50 51°20.026 2°30.073 -999 3.54436 34.201091 3.039022
2009-03-30 12:28:50 51°20.022 2°30.024 -999 3.54436 34.200188 3.247966
2009-03-30 12:29:51 51°19.942 2°30.044 -999 3.545189 34.202759 2.899726
2009-03-30 12:30:51 51°19.832 2°30.195 -999 3.546225 34.208455 2.690782
2009-03-30 12:31:51 51°19.72 2°30.463 -999 3.546432 34.20526 2.412189
2009-03-30 12:32:51 51°19.596 2°30.728 -999 3.544567 34.199702 2.586309
2009-03-30 12:33:51 51°19.464 2°30.973 -999 3.537521 34.089918 2.655957
2009-03-30 12:34:51 51°19.332 2°31.216 -999 3.52975 33.979788 2.93455
2009-03-30 12:35:51 51°19.207 2°31.469 -999 3.524673 33.931721 2.93455
2009-03-30 12:36:50 51°19.09 2°31.728 -999 3.525088 33.958533 3.039022
2009-03-30 12:37:50 51°18.975 2°31.996 -999 3.526746 33.980768 2.795254
2009-03-30 12:38:51 51°18.86 2°32.269 -999 3.530786 33.973866 2.481837
2009-03-30 12:39:51 51°18.749 2°32.54 -999 3.530785 33.90957 2.516661
2009-03-30 12:40:51 51°18.639 2°32.813 -999 3.534722 33.945364 2.481837
2009-03-30 12:41:51 51°18.526 2°33.089 -999 3.541043 34.016428 2.238069
2009-03-30 12:42:51 51°18.416 2°33.37 -999 3.542701 34.060991 2.063949
2009-03-30 12:43:51 51°18.304 2°33.652 -999 3.541976 34.076544 2.098773
2009-03-30 12:44:51 51°18.191 2°33.935 -999 3.541043 34.078232 2.307717
2009-03-30 12:45:51 51°18.08 2°34.216 -999 3.538867 34.045985 2.342541
2009-03-30 12:46:51 51°17.97 2°34.496 -999 3.536484 34.011542 2.272893
2009-03-30 12:47:51 51°17.862 2°34.78 -999 3.536484 33.99991 2.168421
2009-03-30 12:48:51 51°17.751 2°35.067 -999 3.53607 34.008901 2.133597
2009-03-30 12:49:51 51°17.628 2°35.344 -999 3.532961 33.977455 2.447013
2009-03-30 12:50:51 51°17.498 2°35.616 -999 3.530475 33.939257 2.76043
2009-03-30 12:51:51 51°17.367 2°35.888 -999 3.526952 33.904289 2.969374
2009-03-30 12:52:51 51°17.228 2°36.141 -999 3.525294 33.880335 2.899726
2009-03-30 12:53:51 51°17.07 2°36.357 -999 3.525812 33.836915 2.795254
2009-03-30 12:54:51 51°16.907 2°36.555 -999 3.524049 33.753417 2.690782
2009-03-30 12:55:51 51°16.76 2°36.742 -999 3.525189 33.75405 2.76043
2009-03-30 12:56:52 51°16.657 2°36.855 -999 3.528712 33.793317 2.655957
2009-03-30 12:57:50 51°16.608 2°36.856 -999 3.531198 33.790575 2.342541
2009-03-30 12:58:51 51°16.573 2°36.866 -999 3.531923 33.785909 2.412189
2009-03-30 12:59:51 51°16.551 2°36.835 -999 3.532959 33.794274 2.447013
2009-03-30 13:00:51 51°16.563 2°36.796 -999 3.53441 33.808815 2.377365
2009-03-30 13:01:52 51°16.578 2°36.807 -999 3.53586 33.829551 2.481837
2009-03-30 13:02:51 51°16.592 2°36.833 -999 3.536378 33.83329 2.551485
2009-03-30 13:03:51 51°16.604 2°36.863 -999 3.537104 33.841004 2.899726
2009-03-30 13:04:51 51°16.616 2°36.895 -999 3.536689 33.837482 3.10867
2009-03-30 13:05:51 51°16.626 2°36.927 -999 3.537207 33.842992 3.10867
2009-03-30 13:06:52 51°16.636 2°36.96 -999 3.537725 33.852045 3.10867
2009-03-30 13:07:51 51°16.679 2°36.984 -999 3.535757 33.830219 2.76043
2009-03-30 13:08:51 51°16.833 2°37.052 -999 3.538347 33.843603 2.586309
2009-03-30 13:09:51 51°16.912 2°37.31 -999 3.534617 33.814557 2.690782
2009-03-30 13:10:51 51°16.768 2°37.436 -999 3.530369 33.733198 2.412189
2009-03-30 13:11:51 51°16.585 2°37.417 -999 3.527882 33.698862 2.342541
2009-03-30 13:12:52 51°16.396 2°37.4 -999 3.532959 33.760712 2.551485
2009-03-30 13:13:51 51°16.214 2°37.371 -999 3.539694 33.850842 2.412189
2009-03-30 13:14:51 51°16.027 2°37.357 -999 3.543839 33.960638 2.342541
2009-03-30 13:15:52 51°15.836 2°37.351 -999 3.544254 34.03553 2.725606
2009-03-30 13:16:51 51°15.646 2°37.392 -999 3.544358 34.071544 2.830078
2009-03-30 13:17:51 51°15.452 2°37.444 -999 3.546949 34.086682 2.377365
2009-03-30 13:18:51 51°15.258 2°37.492 -999 3.552854 34.132753 2.029124
2009-03-30 13:19:51 51°15.065 2°37.547 -999 3.556481 34.171499 1.750532
2009-03-30 13:20:51 51°14.875 2°37.566 -999 3.570157 34.226866 1.262995
2009-03-30 13:21:52 51°14.682 2°37.579 -999 3.576997 34.317782 1.680884
2009-03-30 13:22:52 51°14.494 2°37.584 -999 3.576272 34.35237 2.272893
2009-03-30 13:23:52 51°14.306 2°37.591 -999 3.575132 34.362744 2.516661
2009-03-30 13:24:52 51°14.118 2°37.594 -999 3.576686 34.380265 2.307717
2009-03-30 13:25:51 51°13.935 2°37.598 -999 3.578759 34.391583 1.924652
2009-03-30 13:26:52 51°13.746 2°37.599 -999 3.580934 34.382342 1.785356
2009-03-30 13:27:51 51°13.56 2°37.603 -999 3.583939 34.408121 1.889828
2009-03-30 13:28:51 51°13.37 2°37.609 -999 3.582074 34.41438 2.586309
2009-03-30 13:29:51 51°13.179 2°37.6 -999 3.579381 34.410882 3.143494
2009-03-30 13:30:51 51°12.989 2°37.598 -999 3.573578 34.346127 3.317614
2009-03-30 13:31:50 51°12.804 2°37.575 -999 3.582282 34.405756 4.22304
2009-03-30 13:32:51 51°12.617 2°37.532 -999 3.586012 34.404989 5.232937
2009-03-30 13:33:51 51°12.431 2°37.51 -999 3.589845 34.404439 5.407058
2009-03-30 13:34:51 51°12.245 2°37.481 -999 3.592643 34.402757 5.198113
2009-03-30 13:35:51 51°12.061 2°37.445 -999 3.594611 34.397652 4.849873
2009-03-30 13:36:51 51°11.881 2°37.403 -999 3.596372 34.394842 4.292688
2009-03-30 13:37:52 51°11.696 2°37.364 -999 3.596787 34.393865 4.710577
2009-03-30 13:38:51 51°11.524 2°37.299 -999 3.596787 34.389376 4.675753
2009-03-30 13:39:51 51°11.358 2°37.203 -999 3.593678 34.368868 4.710577
2009-03-30 13:40:52 51°11.189 2°37.109 -999 3.590052 34.349116 4.606104
2009-03-30 13:41:51 51°11.024 2°37.03 -999 3.589637 34.342909 4.327512
2009-03-30 13:42:51 51°10.858 2°36.942 -999 3.593782 34.352033 4.362336
2009-03-30 13:43:51 51°10.695 2°36.847 -999 3.597926 34.385349 3.909623
2009-03-30 13:44:51 51°10.541 2°36.73 -999 3.59803 34.411586 3.387263
2009-03-30 13:45:51 51°10.439 2°36.536 -999 3.597098 34.42503 2.864902
2009-03-30 13:46:51 51°10.422 2°36.322 -999 3.589947 34.293367 2.551485
2009-03-30 13:47:50 51°10.415 2°36.118 -999 3.592849 34.339427 2.307717
2009-03-30 13:48:51 51°10.396 2°35.911 -999 3.595337 34.411667 2.168421
2009-03-30 13:49:51 51°10.358 2°35.757 -999 3.595337 34.428761 2.133597
2009-03-30 13:50:50 51°10.329 2°35.652 -999 3.594611 34.430936 2.203245
2009-03-30 13:51:52 51°10.216 2°35.561 -999 3.593886 34.43041 2.238069
2009-03-30 13:52:52 51°10.05 2°35.607 -999 3.593368 34.429391 2.063949
2009-03-30 13:53:52 51°9.954 2°35.891 -999 3.592747 34.433574 1.785356
2009-03-30 13:54:51 51°9.969 2°36.255 -999 3.585594 34.171387 1.680884
2009-03-30 13:55:52 51°10.014 2°36.561 -999 3.580413 34.06154 2.063949
2009-03-30 13:56:51 51°10.048 2°36.753 -999 3.575335 34.029912 2.307717
2009-03-30 13:57:52 51°10.087 2°36.901 -999 3.575336 34.040527 2.342541
2009-03-30 13:58:51 51°10.119 2°37.025 -999 3.575336 34.05469 2.516661
2009-03-30 13:59:52 51°10.139 2°37.231 -999 3.574403 34.060755 2.621133
2009-03-30 14:00:52 51°10.196 2°37.571 -999 3.573989 34.047504 2.655957
2009-03-30 14:01:51 51°10.271 2°37.924 -999 3.57575 34.078579 3.073846
2009-03-30 14:02:52 51°10.35 2°38.285 -999 3.57658 34.127332 3.561383
2009-03-30 14:03:52 51°10.421 2°38.644 -999 3.575648 34.155706 3.874799
2009-03-30 14:04:51 51°10.492 2°38.995 -999 3.575544 34.177789 3.909623
2009-03-30 14:05:52 51°10.564 2°39.359 -999 3.575234 34.178053 4.153392
2009-03-30 14:06:52 51°10.634 2°39.717 -999 3.574612 34.175905 4.536456
2009-03-30 14:07:51 51°10.693 2°40.071 -999 3.572332 34.154341 6.208011
2009-03-30 14:08:52 51°10.744 2°40.444 -999 3.573058 34.162054 7.183084
2009-03-30 14:09:52 51°10.797 2°40.809 -999 3.574094 34.177536 7.008964
2009-03-30 14:10:52 51°10.864 2°41.168 -999 3.57513 34.190343 6.416955
2009-03-30 14:11:52 51°10.93 2°41.514 -999 3.575855 34.202526 6.138363
2009-03-30 14:12:51 51°10.984 2°41.782 -999 3.576166 34.208515 6.068715
2009-03-30 14:13:52 51°11.04 2°41.943 -999 3.576788 34.2196 6.103539
2009-03-30 14:14:52 51°11.081 2°42.031 -999 3.577928 34.222787 5.441882
2009-03-30 14:15:52 51°11.101 2°42.099 -999 3.578964 34.231128 5.232937
2009-03-30 14:16:52 51°11.119 2°42.165 -999 3.579171 34.231545 5.372234
2009-03-30 14:17:52 51°11.136 2°42.229 -999 3.579379 34.232855 5.441882
2009-03-30 14:18:52 51°11.153 2°42.29 -999 3.579689 34.234374 5.232937
2009-03-30 14:19:51 51°11.172 2°42.357 -999 3.58 34.240364 4.989169
2009-03-30 14:20:52 51°11.19 2°42.46 -999 3.580104 34.239677 4.954345
2009-03-30 14:21:52 51°11.184 2°42.663 -999 3.580518 34.244981 5.128465
2009-03-30 14:22:51 51°11.167 2°42.985 -999 3.581244 34.250909 5.198113
2009-03-30 14:23:52 51°11.211 2°43.347 -999 3.582591 34.26524 4.431984
2009-03-30 14:24:52 51°11.288 2°43.69 -999 3.584042 34.286048 3.631031
2009-03-30 14:25:52 51°11.365 2°44.035 -999 3.584663 34.300729 3.422087
2009-03-30 14:26:52 51°11.439 2°44.383 -999 3.584871 34.312799 3.178318
2009-03-30 14:27:51 51°11.511 2°44.725 -999 3.585492 34.319419 2.93455
2009-03-30 14:28:52 51°11.586 2°45.079 -999 3.586114 34.324244 2.551485
2009-03-30 14:29:52 51°11.658 2°45.426 -999 3.587047 34.321615 2.551485
2009-03-30 14:30:52 51°11.735 2°45.772 -999 3.585389 34.306657 2.621133
2009-03-30 14:31:52 51°11.81 2°46.121 -999 3.583938 34.28405 2.586309
2009-03-30 14:32:52 51°11.882 2°46.473 -999 3.582902 34.264967 2.76043
2009-03-30 14:33:52 51°11.953 2°46.824 -999 3.58114 34.246228 2.899726
2009-03-30 14:34:52 51°12.028 2°47.174 -999 3.576685 34.216709 3.387263
2009-03-30 14:35:52 51°12.106 2°47.523 -999 3.573162 34.189945 3.735503
2009-03-30 14:36:51 51°12.183 2°47.865 -999 3.570157 34.163326 4.014096
2009-03-30 14:37:52 51°12.29 2°48.203 -999 3.564872 34.120471 4.536456
2009-03-30 14:38:52 51°12.402 2°48.53 -999 3.560935 34.074998 4.675753
2009-03-30 14:39:52 51°12.512 2°48.859 -999 3.55907 34.05159 4.675753
2009-03-30 14:40:52 51°12.622 2°49.187 -999 3.558034 34.044127 4.815049
2009-03-30 14:41:52 51°12.731 2°49.513 -999 3.556065 34.032971 5.093641
2009-03-30 14:42:52 51°12.846 2°49.835 -999 3.552646 34.00548 5.407058
2009-03-30 14:43:52 51°12.958 2°50.16 -999 3.551092 33.989828 5.33741
2009-03-30 14:44:52 51°13.063 2°50.494 -999 3.551195 33.990931 5.33741
2009-03-30 14:45:51 51°13.183 2°50.804 -999 3.551402 33.975356 5.267761
2009-03-30 14:46:51 51°13.308 2°51.116 -999 3.548294 33.92721 5.546354
2009-03-30 14:47:52 51°13.439 2°51.43 -999 3.54705 33.867078 5.790122
2009-03-30 14:48:52 51°13.566 2°51.739 -999 3.546013 33.81196 5.790122
2009-03-30 14:49:52 51°13.689 2°52.054 -999 3.540107 33.754637 6.312483
2009-03-30 14:50:51 51°13.811 2°52.359 -999 3.53244 33.681279 6.765196
2009-03-30 14:51:51 51°13.936 2°52.665 -999 3.526638 33.607526 6.904492
2009-03-30 14:52:51 51°14.058 2°52.975 -999 3.519903 33.523974 7.322381
2009-03-30 14:53:51 51°14.18 2°53.286 -999 3.51752 33.467371 7.287557
2009-03-30 14:54:51 51°14.301 2°53.595 -999 3.513686 33.42945 7.357205
2009-03-30 14:55:52 51°14.387 2°53.93 -999 3.507159 33.392601 7.357205
2009-03-30 14:56:51 51°14.416 2°54.273 -999 3.493173 33.28629 7.949214
2009-03-30 14:57:51 51°14.415 2°54.619 -999 3.485403 33.205776 8.367102
2009-03-30 14:58:51 51°14.377 2°54.955 -999 3.468828 33.053689 9.690416
2009-03-30 14:59:51 51°14.275 2°55.216 -999 0.155421 1.17428 -0.965744
2009-03-30 15:00:51 51°14.163 2°55.38 -999 0.130204 0.975167 -1.000568
2009-03-30 15:01:56 51°14.032 2°55.482 -999 0.114765 0.854253 -1.000568
2009-03-30 15:02:56 51°13.916 2°55.565 -999 0.113222 0.841639 -1.000568
2009-03-30 15:03:56 51°13.803 2°55.649 -999 0.102003 0.753514 -1.000568
2009-03-30 15:04:56 51°13.721 2°55.765 -999 0.104576 0.772259 -1.000568
2009-03-30 15:05:56 51°13.677 2°55.875 -999 0.118882 0.881956 -1.000568
2009-03-30 15:06:56 51°13.665 2°55.946 -999 0.1019 0.749494 -1.000568